createdAt,value
2022-08-14T00:00:16.072Z,93048.28
2022-08-14T00:02:45.909Z,93043.59
2022-08-14T00:05:18.390Z,93038.94
2022-08-14T00:07:47.078Z,93030.34
2022-08-14T00:10:50.055Z,93023.81
2022-08-14T00:13:12.794Z,93021.66
2022-08-14T00:15:48.141Z,93015.84
2022-08-14T00:18:30.639Z,93008.44
2022-08-14T00:21:11.675Z,93019.69
2022-08-14T00:23:41.512Z,93008.81
2022-08-14T00:26:23.054Z,93011.50
2022-08-14T00:28:53.948Z,93007.06
2022-08-14T00:31:34.969Z,93012.28
2022-08-14T00:34:35.375Z,92997.03
2022-08-14T00:37:00.228Z,93002.19
2022-08-14T00:39:30.432Z,93003.13
2022-08-14T00:41:59.439Z,93001.44
2022-08-14T00:44:32.510Z,92996.72
2022-08-14T00:47:07.410Z,93000.00
2022-08-14T00:49:43.427Z,92988.81
2022-08-14T00:52:18.258Z,92982.78
2022-08-14T00:54:57.907Z,92984.78
2022-08-14T00:57:33.321Z,92981.97
2022-08-14T01:00:08.066Z,92988.09
2022-08-14T01:02:56.736Z,92996.50
2022-08-14T01:05:27.893Z,93001.81
2022-08-14T01:08:20.573Z,93004.03
2022-08-14T01:11:01.461Z,92995.94
2022-08-14T01:13:42.846Z,92997.78
2022-08-14T01:16:22.457Z,93000.06
2022-08-14T01:19:34.886Z,93002.78
2022-08-14T01:22:04.359Z,92995.00
2022-08-14T01:24:34.574Z,92998.47
2022-08-14T01:27:07.065Z,93002.72
2022-08-14T01:30:01.134Z,93022.00
2022-08-14T01:32:27.516Z,93018.25
2022-08-14T01:35:19.978Z,93022.81
2022-08-14T01:37:54.834Z,93027.13
2022-08-14T01:40:36.389Z,93034.16
2022-08-14T01:43:22.090Z,93039.31
2022-08-14T01:45:57.868Z,93036.31
2022-08-14T01:48:37.015Z,93040.34
2022-08-14T01:51:19.063Z,93035.81
2022-08-14T01:53:55.330Z,93036.94
2022-08-14T01:56:45.655Z,93040.31
2022-08-14T01:59:23.361Z,93035.25
2022-08-14T02:01:59.425Z,93037.00
2022-08-14T02:04:55.996Z,93047.63
2022-08-14T02:07:34.291Z,93054.16
2022-08-14T02:10:15.582Z,93075.56
2022-08-14T02:12:48.925Z,93081.00
2022-08-14T02:15:23.329Z,93090.47
2022-08-14T02:17:52.359Z,93097.16
2022-08-14T02:20:23.872Z,93103.13
2022-08-14T02:22:55.309Z,93104.06
2022-08-14T02:25:24.774Z,93114.34
2022-08-14T02:28:23.806Z,93122.13
2022-08-14T02:30:47.511Z,93128.97
2022-08-14T02:33:16.284Z,93124.31
2022-08-14T02:35:53.054Z,93114.88
2022-08-14T02:38:30.153Z,93098.03
2022-08-14T02:41:02.988Z,93096.34
2022-08-14T02:43:48.161Z,93099.69
2022-08-14T02:46:20.347Z,93084.09
2022-08-14T02:49:02.842Z,93085.81
2022-08-14T02:51:37.046Z,93069.13
2022-08-14T02:54:09.059Z,93074.59
2022-08-14T02:57:15.562Z,93085.75
2022-08-14T02:59:33.674Z,93096.47
2022-08-14T03:02:04.490Z,93109.63
2022-08-14T03:04:34.520Z,93121.09
2022-08-14T03:07:07.408Z,93119.84
2022-08-14T03:10:24.230Z,93117.41
2022-08-14T03:12:32.416Z,93112.00
2022-08-14T03:15:14.119Z,93104.16
2022-08-14T03:17:57.008Z,93107.56
2022-08-14T03:20:29.681Z,93100.88
2022-08-14T03:23:02.921Z,93090.00
2022-08-14T03:25:37.336Z,93075.78
2022-08-14T03:28:14.647Z,93075.91
2022-08-14T03:31:01.550Z,93078.81
2022-08-14T03:33:38.429Z,93078.91
2022-08-14T03:37:38.433Z,93088.91
2022-08-14T03:39:12.538Z,93099.56
2022-08-14T03:41:59.994Z,93110.72
2022-08-14T03:45:27.139Z,93119.16
2022-08-14T03:47:19.647Z,93127.59
2022-08-14T03:49:49.721Z,93133.34
2022-08-14T03:52:40.621Z,93127.66
2022-08-14T03:55:12.218Z,93121.78
2022-08-14T03:57:43.902Z,93120.84
2022-08-14T04:00:43.072Z,93114.78
2022-08-14T04:03:07.204Z,93117.50
2022-08-14T04:05:43.454Z,93123.84
2022-08-14T04:08:29.710Z,93132.75
2022-08-14T04:11:07.781Z,93136.22
2022-08-14T04:13:42.690Z,93145.88
2022-08-14T04:16:14.129Z,93145.22
2022-08-14T04:18:44.805Z,93147.25
2022-08-14T04:21:18.750Z,93150.63
2022-08-14T04:23:57.388Z,93149.72
2022-08-14T04:26:41.912Z,93156.81
2022-08-14T04:29:15.078Z,93160.34
2022-08-14T04:33:02.021Z,93159.28
2022-08-14T04:34:35.229Z,93179.88
2022-08-14T04:37:24.733Z,93176.56
2022-08-14T04:40:15.048Z,93188.22
2022-08-14T04:43:01.950Z,93205.72
2022-08-14T04:45:42.914Z,93214.13
2022-08-14T04:48:36.707Z,93228.34
2022-08-14T04:51:10.168Z,93239.16
2022-08-14T04:53:44.021Z,93255.81
2022-08-14T04:56:31.682Z,93257.59
2022-08-14T04:59:10.360Z,93285.31
2022-08-14T05:01:49.036Z,93298.78
2022-08-14T05:04:23.995Z,93310.41
2022-08-14T05:06:55.284Z,93308.38
2022-08-14T05:09:29.092Z,93300.66
2022-08-14T05:13:10.494Z,93298.97
2022-08-14T05:14:54.665Z,93286.44
2022-08-14T05:17:32.240Z,93296.81
2022-08-14T05:21:04.310Z,93291.44
2022-08-14T05:23:03.644Z,93306.88
2022-08-14T05:25:34.323Z,93297.22
2022-08-14T05:28:21.744Z,93290.84
2022-08-14T05:30:56.771Z,93281.59
2022-08-14T05:33:27.671Z,93282.56
2022-08-14T05:36:04.989Z,93282.56
2022-08-14T05:38:38.179Z,93284.78
2022-08-14T05:41:09.857Z,93270.94
2022-08-14T05:43:42.234Z,93251.44
2022-08-14T05:46:15.191Z,93258.41
2022-08-14T05:48:45.359Z,93265.28
2022-08-14T05:51:14.715Z,93266.78
2022-08-14T05:53:44.281Z,93255.53
2022-08-14T05:56:30.621Z,93261.91
2022-08-14T05:59:00.609Z,93262.28
2022-08-14T06:01:31.634Z,93255.78
2022-08-14T06:04:01.033Z,93258.63
2022-08-14T06:06:38.419Z,93254.94
2022-08-14T06:09:10.326Z,93248.28
2022-08-14T06:11:39.396Z,93237.63
2022-08-14T06:14:12.490Z,93245.41
2022-08-14T06:16:50.108Z,93248.00
2022-08-14T06:19:23.367Z,93239.31
2022-08-14T06:21:58.422Z,93249.81
2022-08-14T06:24:30.695Z,93251.59
2022-08-14T06:27:06.033Z,93249.75
2022-08-14T06:29:39.620Z,93246.47
2022-08-14T06:32:37.474Z,93248.66
2022-08-14T06:35:04.126Z,93249.66
2022-08-14T06:37:42.264Z,93240.72
2022-08-14T06:40:25.400Z,93242.91
2022-08-14T06:43:06.982Z,93232.06
2022-08-14T06:45:38.693Z,93237.25
2022-08-14T06:48:25.173Z,93237.34
2022-08-14T06:50:55.327Z,93235.56
2022-08-14T06:53:27.568Z,93234.97
2022-08-14T06:56:02.040Z,93248.41
2022-08-14T06:58:32.423Z,93236.66
2022-08-14T07:01:27.109Z,93249.91
2022-08-14T07:04:22.636Z,93248.78
2022-08-14T07:06:55.693Z,93245.00
2022-08-14T07:09:40.587Z,93254.94
2022-08-14T07:12:52.325Z,93268.91
2022-08-14T07:15:07.692Z,93277.66
2022-08-14T07:17:36.626Z,93265.13
2022-08-14T07:20:07.596Z,93262.44
2022-08-14T07:22:56.340Z,93251.69
2022-08-14T07:25:32.169Z,93254.78
2022-08-14T07:28:02.991Z,93253.38
2022-08-14T07:30:34.497Z,93258.16
2022-08-14T07:33:05.019Z,93271.50
2022-08-14T07:35:37.378Z,93276.38
2022-08-14T07:38:19.990Z,93264.81
2022-08-14T07:40:53.104Z,93274.19
2022-08-14T07:43:22.979Z,93289.50
2022-08-14T07:45:54.052Z,93299.84
2022-08-14T07:48:25.073Z,93321.94
2022-08-14T07:51:03.253Z,93333.13
2022-08-14T07:53:41.132Z,93322.50
2022-08-14T07:56:21.790Z,93338.19
2022-08-14T07:59:00.749Z,93345.34
2022-08-14T08:01:32.214Z,93353.38
2022-08-14T08:04:16.477Z,93355.41
2022-08-14T08:06:47.549Z,93354.31
2022-08-14T08:09:31.813Z,93358.56
2022-08-14T08:12:04.807Z,93353.50
2022-08-14T08:14:56.886Z,93350.66
2022-08-14T08:17:26.557Z,93370.34
2022-08-14T08:20:03.799Z,93366.16
2022-08-14T08:22:32.781Z,93369.38
2022-08-14T08:25:02.279Z,93366.56
2022-08-14T08:27:30.943Z,93368.78
2022-08-14T08:30:10.287Z,93356.44
2022-08-14T08:32:47.082Z,93355.91
2022-08-14T08:35:46.208Z,93359.84
2022-08-14T08:39:17.102Z,93363.03
2022-08-14T08:41:11.234Z,93362.22
2022-08-14T08:43:45.871Z,93361.97
2022-08-14T08:46:23.847Z,93370.78
2022-08-14T08:51:33.211Z,93372.97
2022-08-14T08:54:19.719Z,93367.34
2022-08-14T08:56:52.047Z,93369.72
2022-08-14T08:59:27.339Z,93378.72
2022-08-14T09:02:04.170Z,93375.00
2022-08-14T09:04:45.856Z,93365.38
2022-08-14T09:07:28.235Z,93360.75
2022-08-14T09:10:00.179Z,93359.41
2022-08-14T09:12:32.491Z,93365.75
2022-08-14T09:15:12.214Z,93376.28
2022-08-14T09:17:45.158Z,93386.78
2022-08-14T09:20:25.979Z,93409.28
2022-08-14T09:22:59.754Z,93421.91
2022-08-14T09:26:00.347Z,93418.84
2022-08-14T09:28:19.548Z,93413.81
2022-08-14T09:30:57.750Z,93423.41
2022-08-14T09:33:55.916Z,93415.66
2022-08-14T09:36:53.177Z,93418.16
2022-08-14T09:39:31.419Z,93414.72
2022-08-14T09:42:33.312Z,93421.97
2022-08-14T09:45:16.813Z,93424.38
2022-08-14T09:47:52.058Z,93437.22
2022-08-14T09:50:35.103Z,93444.84
2022-08-14T09:53:17.994Z,93435.31
2022-08-14T09:55:59.961Z,93437.47
2022-08-14T09:58:40.441Z,93450.59
2022-08-14T10:01:17.371Z,93440.72
2022-08-14T10:03:55.904Z,93442.06
2022-08-14T10:06:31.052Z,93438.09
2022-08-14T10:09:04.207Z,93437.50
2022-08-14T10:11:43.296Z,93439.13
2022-08-14T10:14:29.064Z,93447.13
2022-08-14T10:17:08.361Z,93439.41
2022-08-14T10:19:48.856Z,93448.50
2022-08-14T10:23:12.914Z,93449.03
2022-08-14T10:25:15.658Z,93451.97
2022-08-14T10:27:48.875Z,93454.91
2022-08-14T10:30:36.263Z,93458.66
2022-08-14T10:33:05.374Z,93449.06
2022-08-14T10:35:48.334Z,93451.47
2022-08-14T10:38:35.059Z,93455.19
2022-08-14T10:41:18.300Z,93449.06
2022-08-14T10:44:08.692Z,93456.78
2022-08-14T10:47:40.202Z,93447.16
2022-08-14T10:49:53.317Z,93457.31
2022-08-14T10:52:36.940Z,93457.59
2022-08-14T10:55:14.623Z,93449.88
2022-08-14T10:57:51.420Z,93461.34
2022-08-14T11:00:30.106Z,93458.94
2022-08-14T11:03:11.169Z,93462.16
2022-08-14T11:05:43.373Z,93462.94
2022-08-14T11:08:13.633Z,93469.09
2022-08-14T11:10:55.852Z,93456.81
2022-08-14T11:13:28.919Z,93461.34
2022-08-14T11:16:04.178Z,93454.16
2022-08-14T11:18:40.006Z,93457.88
2022-08-14T11:21:10.511Z,93459.47
2022-08-14T11:23:41.043Z,93469.06
2022-08-14T11:26:13.830Z,93471.47
2022-08-14T11:28:48.312Z,93466.66
2022-08-14T11:31:22.498Z,93464.00
2022-08-14T11:33:54.902Z,93463.75
2022-08-14T11:36:35.083Z,93465.34
2022-08-14T11:39:23.264Z,93465.38
2022-08-14T11:42:57.018Z,93475.50
2022-08-14T11:45:00.164Z,93477.63
2022-08-14T11:47:35.438Z,93475.78
2022-08-14T11:50:34.118Z,93477.38
2022-08-14T11:53:08.786Z,93481.63
2022-08-14T11:55:40.995Z,93484.00
2022-08-14T11:58:15.719Z,93486.09
2022-08-14T12:00:56.084Z,93493.78
2022-08-14T12:03:52.424Z,93502.03
2022-08-14T12:06:38.606Z,93506.53
2022-08-14T12:09:15.235Z,93510.81
2022-08-14T12:11:47.291Z,93516.41
2022-08-14T12:14:30.276Z,93507.31
2022-08-14T12:17:12.614Z,93512.38
2022-08-14T12:19:56.467Z,93521.25
2022-08-14T12:22:37.559Z,93515.69
2022-08-14T12:25:14.294Z,93522.63
2022-08-14T12:27:58.834Z,93524.50
2022-08-14T12:30:43.990Z,93522.66
2022-08-14T12:33:34.254Z,93537.84
2022-08-14T12:36:06.561Z,93535.97
2022-08-14T12:38:43.538Z,93541.03
2022-08-14T12:41:20.684Z,93543.09
2022-08-14T12:44:00.125Z,93542.63
2022-08-14T12:46:29.130Z,93543.16
2022-08-14T12:49:02.290Z,93545.56
2022-08-14T12:51:31.777Z,93551.97
2022-08-14T12:54:01.733Z,93551.09
2022-08-14T12:56:34.144Z,93554.50
2022-08-14T12:59:04.087Z,93551.56
2022-08-14T13:02:01.940Z,93551.25
2022-08-14T13:04:23.875Z,93544.84
2022-08-14T13:06:54.145Z,93544.03
2022-08-14T13:09:23.375Z,93542.72
2022-08-14T13:11:58.611Z,93548.59
2022-08-14T13:14:49.357Z,93554.38
2022-08-14T13:17:18.938Z,93549.59
2022-08-14T13:19:48.373Z,93550.91
2022-08-14T13:22:31.953Z,93557.88
2022-08-14T13:25:05.852Z,93562.72
2022-08-14T13:27:39.261Z,93572.91
2022-08-14T13:30:14.516Z,93570.00
2022-08-14T13:32:52.972Z,93573.97
2022-08-14T13:35:22.435Z,93573.38
2022-08-14T13:37:54.013Z,93570.97
2022-08-14T13:40:26.421Z,93573.69
2022-08-14T13:42:57.819Z,93574.28
2022-08-14T13:45:59.376Z,93584.13
2022-08-14T13:48:27.434Z,93580.66
2022-08-14T13:51:04.801Z,93569.72
2022-08-14T13:53:41.406Z,93574.75
2022-08-14T13:56:30.889Z,93580.31
2022-08-14T13:59:04.484Z,93586.69
2022-08-14T14:01:43.016Z,93586.69
2022-08-14T14:04:19.433Z,93589.69
2022-08-14T14:06:53.311Z,93589.25
2022-08-14T14:09:50.939Z,93598.66
2022-08-14T14:12:37.792Z,93599.28
2022-08-14T14:15:17.601Z,93596.09
2022-08-14T14:17:48.860Z,93596.13
2022-08-14T14:20:35.419Z,93596.66
2022-08-14T14:23:09.502Z,93590.25
2022-08-14T14:25:51.481Z,93595.88
2022-08-14T14:28:32.566Z,93594.78
2022-08-14T14:31:06.912Z,93595.06
2022-08-14T14:33:46.813Z,93601.94
2022-08-14T14:36:21.704Z,93600.31
2022-08-14T14:39:04.736Z,93598.34
2022-08-14T14:41:37.951Z,93598.53
2022-08-14T14:44:16.582Z,93602.16
2022-08-14T14:46:53.267Z,93602.09
2022-08-14T14:49:31.853Z,93601.72
2022-08-14T14:52:20.785Z,93593.25
2022-08-14T14:54:52.314Z,93608.44
2022-08-14T14:57:20.734Z,93607.00
2022-08-14T14:59:50.207Z,93610.63
2022-08-14T15:02:32.569Z,93616.88
2022-08-14T15:05:01.807Z,93614.94
2022-08-14T15:07:31.799Z,93617.47
2022-08-14T15:10:01.696Z,93618.09
2022-08-14T15:12:55.139Z,93620.09
2022-08-14T15:15:21.282Z,93623.16
2022-08-14T15:17:54.827Z,93630.00
2022-08-14T15:20:30.257Z,93624.22
2022-08-14T15:23:12.204Z,93623.69
2022-08-14T15:25:42.969Z,93627.47
2022-08-14T15:28:21.197Z,93628.91
2022-08-14T15:30:58.949Z,93622.16
2022-08-14T15:34:13.379Z,93618.50
2022-08-14T15:36:37.346Z,93620.28
2022-08-14T15:39:07.968Z,93625.41
2022-08-14T15:41:41.937Z,93626.78
2022-08-14T15:44:24.659Z,93623.81
2022-08-14T15:46:55.030Z,93622.91
2022-08-14T15:49:25.723Z,93623.81
2022-08-14T15:52:02.070Z,93620.34
2022-08-14T15:54:32.258Z,93616.59
2022-08-14T15:57:03.650Z,93623.66
2022-08-14T15:59:53.939Z,93622.28
2022-08-14T16:02:24.442Z,93624.66
2022-08-14T16:04:56.613Z,93628.47
2022-08-14T16:07:27.016Z,93628.06
2022-08-14T16:10:27.799Z,93625.22
2022-08-14T16:12:47.502Z,93624.75
2022-08-14T16:15:17.720Z,93630.13
2022-08-14T16:17:48.046Z,93619.44
2022-08-14T16:20:40.908Z,93619.25
2022-08-14T16:23:11.526Z,93627.66
2022-08-14T16:25:43.966Z,93637.53
2022-08-14T16:28:27.382Z,93632.53
2022-08-14T16:30:56.773Z,93635.34
2022-08-14T16:33:28.057Z,93633.97
2022-08-14T16:36:31.389Z,93634.81
2022-08-14T16:39:03.125Z,93633.31
2022-08-14T16:41:32.272Z,93635.91
2022-08-14T16:44:13.786Z,93633.25
2022-08-14T16:46:55.318Z,93628.34
2022-08-14T16:50:03.211Z,93631.59
2022-08-14T16:52:25.686Z,93624.13
2022-08-14T16:55:11.602Z,93635.44
2022-08-14T16:57:58.512Z,93636.78
2022-08-14T17:00:43.905Z,93639.31
2022-08-14T17:03:14.753Z,93630.78
2022-08-14T17:05:46.894Z,93637.38
2022-08-14T17:08:33.396Z,93636.94
2022-08-14T17:11:12.961Z,93628.63
2022-08-14T17:13:58.677Z,93629.09
2022-08-14T17:16:39.681Z,93638.47
2022-08-14T17:19:09.970Z,93640.22
2022-08-14T17:21:47.090Z,93632.59
2022-08-14T17:24:57.803Z,93630.69
2022-08-14T17:27:11.169Z,93635.16
2022-08-14T17:29:56.271Z,93638.66
2022-08-14T17:32:29.890Z,93636.72
2022-08-14T17:35:16.525Z,93633.19
2022-08-14T17:37:55.788Z,93638.94
2022-08-14T17:40:31.677Z,93635.44
2022-08-14T17:43:02.721Z,93623.97
2022-08-14T17:45:42.799Z,93634.63
2022-08-14T17:49:16.054Z,93633.03
2022-08-14T17:51:23.788Z,93629.38
2022-08-14T17:54:03.734Z,93629.84
2022-08-14T17:56:38.832Z,93628.44
2022-08-14T17:59:07.907Z,93623.03
2022-08-14T18:01:39.237Z,93624.78
2022-08-14T18:04:25.126Z,93622.34
2022-08-14T18:07:16.375Z,93620.59
2022-08-14T18:09:56.931Z,93625.06
2022-08-14T18:12:37.028Z,93621.38
2022-08-14T18:15:06.768Z,93616.63
2022-08-14T18:17:53.122Z,93619.16
2022-08-14T18:21:39.650Z,93625.91
2022-08-14T18:23:15.868Z,93622.78
2022-08-14T18:25:53.244Z,93611.53
2022-08-14T18:28:51.395Z,93614.78
2022-08-14T18:31:24.829Z,93613.06
2022-08-14T18:34:31.888Z,93616.03
2022-08-14T18:37:17.584Z,93616.31
2022-08-14T18:40:02.756Z,93620.84
2022-08-14T18:42:44.240Z,93617.25
2022-08-14T18:45:29.091Z,93616.50
2022-08-14T18:48:50.552Z,93615.66
2022-08-14T18:51:45.399Z,93617.59
2022-08-14T18:54:33.247Z,93616.88
2022-08-14T18:57:05.550Z,93625.94
2022-08-14T18:59:42.370Z,93626.91
2022-08-14T19:02:31.246Z,93630.19
2022-08-14T19:05:03.072Z,93632.06
2022-08-14T19:07:34.120Z,93626.78
2022-08-14T19:10:17.093Z,93627.25
2022-08-14T19:12:55.089Z,93633.06
2022-08-14T19:15:45.558Z,93624.88
2022-08-14T19:18:38.156Z,93621.69
2022-08-14T19:21:24.062Z,93619.03
2022-08-14T19:24:29.447Z,93629.09
2022-08-14T19:27:23.675Z,93626.16
2022-08-14T19:30:20.372Z,93623.06
2022-08-14T19:32:56.031Z,93621.69
2022-08-14T19:35:43.620Z,93630.47
2022-08-14T19:38:53.117Z,93632.41
2022-08-14T19:41:34.329Z,93621.78
2022-08-14T19:44:31.642Z,93621.09
2022-08-14T19:47:06.084Z,93625.94
2022-08-14T19:50:07.458Z,93629.50
2022-08-14T19:52:39.987Z,93632.88
2022-08-14T19:55:19.653Z,93626.44
2022-08-14T19:57:52.036Z,93636.69
2022-08-14T20:00:29.993Z,93639.09
2022-08-14T20:03:14.250Z,93646.03
2022-08-14T20:05:49.113Z,93643.63
2022-08-14T20:09:05.179Z,93643.47
2022-08-14T20:12:00.609Z,93642.13
2022-08-14T20:14:23.034Z,93644.41
2022-08-14T20:17:06.698Z,93647.69
2022-08-14T20:19:41.549Z,93645.94
2022-08-14T20:22:36.513Z,93640.44
2022-08-14T20:25:15.230Z,93647.75
2022-08-14T20:27:46.094Z,93649.84
2022-08-14T20:30:33.663Z,93648.44
2022-08-14T20:33:11.000Z,93654.22
2022-08-14T20:35:50.404Z,93652.97
2022-08-14T20:38:30.501Z,93648.81
2022-08-14T20:41:06.649Z,93650.69
2022-08-14T20:43:57.084Z,93655.59
2022-08-14T20:46:31.413Z,93653.41
2022-08-14T20:49:06.237Z,93641.34
2022-08-14T20:51:47.508Z,93648.53
2022-08-14T20:54:33.372Z,93638.31
2022-08-14T20:57:13.920Z,93641.69
2022-08-14T20:59:57.415Z,93647.25
2022-08-14T21:02:50.465Z,93635.59
2022-08-14T21:05:33.777Z,93641.22
2022-08-14T21:08:08.471Z,93642.59
2022-08-14T21:10:56.659Z,93633.66
2022-08-14T21:14:19.597Z,93636.09
2022-08-14T21:16:34.788Z,93634.06
2022-08-14T21:19:06.586Z,93644.69
2022-08-14T21:21:41.231Z,93639.81
2022-08-14T21:24:39.877Z,93636.91
2022-08-14T21:27:12.629Z,93641.66
2022-08-14T21:29:54.250Z,93639.91
2022-08-14T21:32:47.136Z,93640.63
2022-08-14T21:35:20.887Z,93635.31
2022-08-14T21:37:53.979Z,93639.69
2022-08-14T21:40:41.045Z,93648.50
2022-08-14T21:43:18.133Z,93638.88
2022-08-14T21:45:55.875Z,93628.97
2022-08-14T21:48:34.026Z,93639.63
2022-08-14T21:51:56.150Z,93638.91
2022-08-14T21:54:01.315Z,93644.97
2022-08-14T21:56:38.974Z,93636.66
2022-08-14T21:59:17.554Z,93639.16
2022-08-14T22:02:00.257Z,93639.06
2022-08-14T22:04:34.874Z,93635.72
2022-08-14T22:07:12.506Z,93642.16
2022-08-14T22:09:55.009Z,93633.97
2022-08-14T22:12:47.305Z,93634.44
2022-08-14T22:15:17.735Z,93633.94
2022-08-14T22:17:52.372Z,93633.41
2022-08-14T22:20:26.904Z,93628.97
2022-08-14T22:22:56.614Z,93632.44
2022-08-14T22:25:33.984Z,93638.25
2022-08-14T22:28:06.970Z,93630.97
2022-08-14T22:30:39.483Z,93638.47
2022-08-14T22:33:13.585Z,93628.66
2022-08-14T22:35:42.908Z,93631.72
2022-08-14T22:38:35.295Z,93641.31
2022-08-14T22:41:21.191Z,93622.91
2022-08-14T22:43:52.741Z,93632.72
2022-08-14T22:46:22.394Z,93633.94
2022-08-14T22:48:53.555Z,93628.59
2022-08-14T22:51:25.158Z,93627.78
2022-08-14T22:53:58.301Z,93626.28
2022-08-14T22:56:30.390Z,93632.44
2022-08-14T22:59:02.792Z,93630.03
2022-08-14T23:01:46.169Z,93630.00
2022-08-14T23:04:35.545Z,93631.16
2022-08-14T23:07:23.147Z,93625.94
2022-08-14T23:10:34.016Z,93631.16
2022-08-14T23:12:54.376Z,93625.94
2022-08-14T23:15:29.843Z,93641.00
2022-08-14T23:18:00.084Z,93641.50
2022-08-14T23:20:36.174Z,93639.84
2022-08-14T23:23:22.955Z,93642.84
2022-08-14T23:25:59.512Z,93643.78
2022-08-14T23:28:34.127Z,93650.66
2022-08-14T23:31:34.786Z,93641.25
2022-08-14T23:34:09.996Z,93638.13
2022-08-14T23:36:53.281Z,93640.44
2022-08-14T23:39:29.976Z,93635.84
2022-08-14T23:42:04.281Z,93626.72
2022-08-14T23:44:36.057Z,93625.63
2022-08-14T23:47:12.158Z,93627.47
2022-08-14T23:50:04.138Z,93629.31
2022-08-14T23:53:07.271Z,93622.28
2022-08-14T23:55:31.752Z,93627.91
2022-08-14T23:58:01.747Z,93633.97
